sensor_id;sensor_type;location;lat;lon;timestamp;temperature;humidity
73780;SHT30;62093;37.614;15.072;2022-08-19T00:02:12;26.39;59.19
73780;SHT30;62093;37.614;15.072;2022-08-19T00:04:38;26.44;59.08
73780;SHT30;62093;37.614;15.072;2022-08-19T00:07:06;26.45;59.06
73780;SHT30;62093;37.614;15.072;2022-08-19T00:09:32;26.47;58.99
73780;SHT30;62093;37.614;15.072;2022-08-19T00:11:58;26.42;59.06
73780;SHT30;62093;37.614;15.072;2022-08-19T00:14:25;26.44;59.04
73780;SHT30;62093;37.614;15.072;2022-08-19T00:16:52;26.47;59.13
73780;SHT30;62093;37.614;15.072;2022-08-19T00:19:20;26.44;59.15
73780;SHT30;62093;37.614;15.072;2022-08-19T00:21:46;26.45;59.13
73780;SHT30;62093;37.614;15.072;2022-08-19T00:24:13;26.42;59.07
73780;SHT30;62093;37.614;15.072;2022-08-19T00:26:41;26.42;59.06
73780;SHT30;62093;37.614;15.072;2022-08-19T00:29:09;26.42;59.10
73780;SHT30;62093;37.614;15.072;2022-08-19T00:31:36;26.44;59.05
73780;SHT30;62093;37.614;15.072;2022-08-19T00:34:02;26.42;59.10
73780;SHT30;62093;37.614;15.072;2022-08-19T00:36:28;26.42;59.14
73780;SHT30;62093;37.614;15.072;2022-08-19T00:38:55;26.41;59.15
73780;SHT30;62093;37.614;15.072;2022-08-19T00:41:21;26.41;59.11
73780;SHT30;62093;37.614;15.072;2022-08-19T00:44:05;26.42;59.19
73780;SHT30;62093;37.614;15.072;2022-08-19T00:46:33;26.41;59.25
73780;SHT30;62093;37.614;15.072;2022-08-19T00:49:14;26.42;59.09
73780;SHT30;62093;37.614;15.072;2022-08-19T00:51:41;26.39;59.18
73780;SHT30;62093;37.614;15.072;2022-08-19T00:54:09;26.42;59.09
73780;SHT30;62093;37.614;15.072;2022-08-19T00:56:35;26.39;59.16
73780;SHT30;62093;37.614;15.072;2022-08-19T00:59:02;26.41;59.20
73780;SHT30;62093;37.614;15.072;2022-08-19T01:01:34;26.41;59.14
73780;SHT30;62093;37.614;15.072;2022-08-19T01:04:00;26.39;59.28
73780;SHT30;62093;37.614;15.072;2022-08-19T01:06:26;26.42;59.25
73780;SHT30;62093;37.614;15.072;2022-08-19T01:08:54;26.39;59.15
73780;SHT30;62093;37.614;15.072;2022-08-19T01:11:20;26.38;59.15
73780;SHT30;62093;37.614;15.072;2022-08-19T01:13:46;26.42;59.26
73780;SHT30;62093;37.614;15.072;2022-08-19T01:16:12;26.39;59.18
73780;SHT30;62093;37.614;15.072;2022-08-19T01:18:41;26.38;59.27
73780;SHT30;62093;37.614;15.072;2022-08-19T01:21:12;26.38;59.27
73780;SHT30;62093;37.614;15.072;2022-08-19T01:23:43;26.39;59.33
73780;SHT30;62093;37.614;15.072;2022-08-19T01:26:16;26.42;59.23
73780;SHT30;62093;37.614;15.072;2022-08-19T01:28:44;26.38;59.21
73780;SHT30;62093;37.614;15.072;2022-08-19T01:31:15;26.38;59.19
73780;SHT30;62093;37.614;15.072;2022-08-19T01:33:42;26.39;59.19
73780;SHT30;62093;37.614;15.072;2022-08-19T01:36:12;26.38;59.27
73780;SHT30;62093;37.614;15.072;2022-08-19T01:38:41;26.35;59.22
73780;SHT30;62093;37.614;15.072;2022-08-19T01:41:10;26.37;59.26
73780;SHT30;62093;37.614;15.072;2022-08-19T01:43:36;26.38;59.25
73780;SHT30;62093;37.614;15.072;2022-08-19T01:46:03;26.37;59.34
73780;SHT30;62093;37.614;15.072;2022-08-19T01:48:41;26.35;59.21
73780;SHT30;62093;37.614;15.072;2022-08-19T01:51:08;26.38;59.27
73780;SHT30;62093;37.614;15.072;2022-08-19T01:53:35;26.39;59.17
73780;SHT30;62093;37.614;15.072;2022-08-19T01:56:03;26.38;59.24
73780;SHT30;62093;37.614;15.072;2022-08-19T01:58:36;26.38;59.22
73780;SHT30;62093;37.614;15.072;2022-08-19T02:01:04;26.38;59.26
73780;SHT30;62093;37.614;15.072;2022-08-19T02:03:30;26.37;59.31
73780;SHT30;62093;37.614;15.072;2022-08-19T02:05:58;26.38;59.28
73780;SHT30;62093;37.614;15.072;2022-08-19T02:08:29;26.35;59.36
73780;SHT30;62093;37.614;15.072;2022-08-19T02:10:56;26.31;59.36
73780;SHT30;62093;37.614;15.072;2022-08-19T02:13:22;26.29;59.34
73780;SHT30;62093;37.614;15.072;2022-08-19T02:15:48;26.35;59.27
73780;SHT30;62093;37.614;15.072;2022-08-19T02:18:14;26.38;59.30
73780;SHT30;62093;37.614;15.072;2022-08-19T02:20:41;26.38;59.24
73780;SHT30;62093;37.614;15.072;2022-08-19T02:23:08;26.37;59.19
73780;SHT30;62093;37.614;15.072;2022-08-19T02:25:35;26.34;59.30
73780;SHT30;62093;37.614;15.072;2022-08-19T02:28:01;26.38;59.23
73780;SHT30;62093;37.614;15.072;2022-08-19T02:30:27;26.34;59.31
73780;SHT30;62093;37.614;15.072;2022-08-19T02:32:53;26.38;59.32
73780;SHT30;62093;37.614;15.072;2022-08-19T02:35:19;26.35;59.32
73780;SHT30;62093;37.614;15.072;2022-08-19T02:37:45;26.38;59.27
73780;SHT30;62093;37.614;15.072;2022-08-19T02:40:30;26.37;59.21
73780;SHT30;62093;37.614;15.072;2022-08-19T02:43:01;26.35;59.22
73780;SHT30;62093;37.614;15.072;2022-08-19T02:45:32;26.38;59.16
73780;SHT30;62093;37.614;15.072;2022-08-19T02:47:58;26.38;59.19
73780;SHT30;62093;37.614;15.072;2022-08-19T02:50:24;26.38;59.24
73780;SHT30;62093;37.614;15.072;2022-08-19T02:52:50;26.37;59.19
73780;SHT30;62093;37.614;15.072;2022-08-19T02:55:16;26.38;59.14
73780;SHT30;62093;37.614;15.072;2022-08-19T02:57:41;26.37;59.12
73780;SHT30;62093;37.614;15.072;2022-08-19T03:00:08;26.37;59.24
73780;SHT30;62093;37.614;15.072;2022-08-19T03:02:38;26.37;59.13
73780;SHT30;62093;37.614;15.072;2022-08-19T03:05:05;26.35;59.24
73780;SHT30;62093;37.614;15.072;2022-08-19T03:07:31;26.35;59.18
73780;SHT30;62093;37.614;15.072;2022-08-19T03:09:57;26.35;59.15
73780;SHT30;62093;37.614;15.072;2022-08-19T03:12:24;26.35;59.15
73780;SHT30;62093;37.614;15.072;2022-08-19T03:14:50;26.35;59.16
73780;SHT30;62093;37.614;15.072;2022-08-19T03:17:16;26.37;59.20
73780;SHT30;62093;37.614;15.072;2022-08-19T03:19:42;26.35;59.21
73780;SHT30;62093;37.614;15.072;2022-08-19T03:22:08;26.38;59.16
73780;SHT30;62093;37.614;15.072;2022-08-19T03:24:34;26.35;59.18
73780;SHT30;62093;37.614;15.072;2022-08-19T03:27:00;26.35;59.21
73780;SHT30;62093;37.614;15.072;2022-08-19T03:29:28;26.35;59.30
73780;SHT30;62093;37.614;15.072;2022-08-19T03:31:54;26.37;59.24
73780;SHT30;62093;37.614;15.072;2022-08-19T03:34:23;26.39;59.20
73780;SHT30;62093;37.614;15.072;2022-08-19T03:36:53;26.32;59.23
73780;SHT30;62093;37.614;15.072;2022-08-19T03:39:20;26.35;59.28
73780;SHT30;62093;37.614;15.072;2022-08-19T03:41:47;26.37;59.21
73780;SHT30;62093;37.614;15.072;2022-08-19T03:44:18;26.37;59.16
73780;SHT30;62093;37.614;15.072;2022-08-19T03:46:48;26.37;59.15
73780;SHT30;62093;37.614;15.072;2022-08-19T03:49:15;26.39;59.09
73780;SHT30;62093;37.614;15.072;2022-08-19T03:51:42;26.38;59.17
73780;SHT30;62093;37.614;15.072;2022-08-19T03:54:10;26.37;59.19
73780;SHT30;62093;37.614;15.072;2022-08-19T03:56:38;26.37;59.17
73780;SHT30;62093;37.614;15.072;2022-08-19T03:59:06;26.37;59.16
73780;SHT30;62093;37.614;15.072;2022-08-19T04:01:32;26.37;59.10
73780;SHT30;62093;37.614;15.072;2022-08-19T04:03:59;26.41;59.07
73780;SHT30;62093;37.614;15.072;2022-08-19T04:06:29;26.38;59.06
73780;SHT30;62093;37.614;15.072;2022-08-19T04:08:57;26.38;59.08
73780;SHT30;62093;37.614;15.072;2022-08-19T04:11:26;26.39;59.04
73780;SHT30;62093;37.614;15.072;2022-08-19T04:13:53;26.35;59.13
73780;SHT30;62093;37.614;15.072;2022-08-19T04:16:21;26.35;59.10
73780;SHT30;62093;37.614;15.072;2022-08-19T04:18:48;26.35;59.10
73780;SHT30;62093;37.614;15.072;2022-08-19T04:21:19;26.38;59.06
73780;SHT30;62093;37.614;15.072;2022-08-19T04:23:47;26.38;59.07
73780;SHT30;62093;37.614;15.072;2022-08-19T04:26:19;26.37;59.09
73780;SHT30;62093;37.614;15.072;2022-08-19T04:28:45;26.39;59.09
73780;SHT30;62093;37.614;15.072;2022-08-19T04:31:17;26.35;59.10
73780;SHT30;62093;37.614;15.072;2022-08-19T04:33:43;26.37;59.11
73780;SHT30;62093;37.614;15.072;2022-08-19T04:36:18;26.38;59.07
73780;SHT30;62093;37.614;15.072;2022-08-19T04:38:47;26.34;59.11
73780;SHT30;62093;37.614;15.072;2022-08-19T04:41:13;26.35;59.13
73780;SHT30;62093;37.614;15.072;2022-08-19T04:43:57;26.32;59.20
73780;SHT30;62093;37.614;15.072;2022-08-19T04:46:23;26.35;59.19
73780;SHT30;62093;37.614;15.072;2022-08-19T04:48:49;26.34;59.14
73780;SHT30;62093;37.614;15.072;2022-08-19T04:51:15;26.38;59.14
73780;SHT30;62093;37.614;15.072;2022-08-19T04:53:42;26.35;59.11
73780;SHT30;62093;37.614;15.072;2022-08-19T04:56:11;26.34;59.19
73780;SHT30;62093;37.614;15.072;2022-08-19T04:58:40;26.37;59.14
73780;SHT30;62093;37.614;15.072;2022-08-19T05:01:11;26.35;59.05
73780;SHT30;62093;37.614;15.072;2022-08-19T05:03:38;26.35;59.18
73780;SHT30;62093;37.614;15.072;2022-08-19T05:06:06;26.38;59.15
73780;SHT30;62093;37.614;15.072;2022-08-19T05:08:34;26.37;59.10
73780;SHT30;62093;37.614;15.072;2022-08-19T05:11:01;26.35;59.07
73780;SHT30;62093;37.614;15.072;2022-08-19T05:13:27;26.37;59.13
73780;SHT30;62093;37.614;15.072;2022-08-19T05:15:57;26.38;59.08
73780;SHT30;62093;37.614;15.072;2022-08-19T05:18:23;26.35;59.12
73780;SHT30;62093;37.614;15.072;2022-08-19T05:21:10;26.35;59.08
73780;SHT30;62093;37.614;15.072;2022-08-19T05:23:55;26.38;59.06
73780;SHT30;62093;37.614;15.072;2022-08-19T05:26:21;26.34;59.06
73780;SHT30;62093;37.614;15.072;2022-08-19T05:28:47;26.32;59.05
73780;SHT30;62093;37.614;15.072;2022-08-19T05:31:13;26.35;59.10
73780;SHT30;62093;37.614;15.072;2022-08-19T05:33:39;26.32;59.06
73780;SHT30;62093;37.614;15.072;2022-08-19T05:36:05;26.32;59.20
73780;SHT30;62093;37.614;15.072;2022-08-19T05:38:33;26.34;59.09
73780;SHT30;62093;37.614;15.072;2022-08-19T05:41:05;26.34;59.13
73780;SHT30;62093;37.614;15.072;2022-08-19T05:43:31;26.32;59.14
73780;SHT30;62093;37.614;15.072;2022-08-19T05:45:57;26.34;59.12
73780;SHT30;62093;37.614;15.072;2022-08-19T05:48:23;26.34;59.16
73780;SHT30;62093;37.614;15.072;2022-08-19T05:50:50;26.32;59.19
73780;SHT30;62093;37.614;15.072;2022-08-19T05:53:16;26.32;59.17
73780;SHT30;62093;37.614;15.072;2022-08-19T05:55:42;26.32;59.26
73780;SHT30;62093;37.614;15.072;2022-08-19T05:58:08;26.32;59.22
73780;SHT30;62093;37.614;15.072;2022-08-19T06:00:35;26.31;59.24
73780;SHT30;62093;37.614;15.072;2022-08-19T06:03:01;26.31;59.20
73780;SHT30;62093;37.614;15.072;2022-08-19T06:05:31;26.28;59.34
73780;SHT30;62093;37.614;15.072;2022-08-19T06:07:58;26.28;59.27
73780;SHT30;62093;37.614;15.072;2022-08-19T06:10:27;26.28;59.36
73780;SHT30;62093;37.614;15.072;2022-08-19T06:12:53;26.27;59.37
73780;SHT30;62093;37.614;15.072;2022-08-19T06:15:19;26.32;59.28
73780;SHT30;62093;37.614;15.072;2022-08-19T06:17:45;26.32;59.31
73780;SHT30;62093;37.614;15.072;2022-08-19T06:20:13;26.29;59.38
73780;SHT30;62093;37.614;15.072;2022-08-19T06:22:45;26.28;59.32
73780;SHT30;62093;37.614;15.072;2022-08-19T06:25:13;26.29;59.32
73780;SHT30;62093;37.614;15.072;2022-08-19T06:27:39;26.25;59.32
73780;SHT30;62093;37.614;15.072;2022-08-19T06:30:06;26.27;59.38
73780;SHT30;62093;37.614;15.072;2022-08-19T06:32:32;26.29;59.32
73780;SHT30;62093;37.614;15.072;2022-08-19T06:34:57;26.31;59.36
73780;SHT30;62093;37.614;15.072;2022-08-19T06:37:23;26.32;59.28
73780;SHT30;62093;37.614;15.072;2022-08-19T06:39:50;26.28;59.32
73780;SHT30;62093;37.614;15.072;2022-08-19T06:42:16;26.28;59.39
73780;SHT30;62093;37.614;15.072;2022-08-19T06:44:46;26.28;59.37
73780;SHT30;62093;37.614;15.072;2022-08-19T06:47:18;26.31;59.37
73780;SHT30;62093;37.614;15.072;2022-08-19T06:49:44;26.28;59.30
73780;SHT30;62093;37.614;15.072;2022-08-19T06:52:11;26.25;59.39
73780;SHT30;62093;37.614;15.072;2022-08-19T06:54:38;26.28;59.40
73780;SHT30;62093;37.614;15.072;2022-08-19T06:57:05;26.27;59.46
73780;SHT30;62093;37.614;15.072;2022-08-19T06:59:32;26.28;59.42
73780;SHT30;62093;37.614;15.072;2022-08-19T07:02:02;26.32;59.43
73780;SHT30;62093;37.614;15.072;2022-08-19T07:04:31;26.29;59.43
73780;SHT30;62093;37.614;15.072;2022-08-19T07:07:03;26.34;59.43
73780;SHT30;62093;37.614;15.072;2022-08-19T07:09:29;26.29;59.38
73780;SHT30;62093;37.614;15.072;2022-08-19T07:11:55;26.29;59.34
73780;SHT30;62093;37.614;15.072;2022-08-19T07:14:26;26.31;59.36
73780;SHT30;62093;37.614;15.072;2022-08-19T07:16:54;26.29;59.38
73780;SHT30;62093;37.614;15.072;2022-08-19T07:19:22;26.29;59.34
73780;SHT30;62093;37.614;15.072;2022-08-19T07:21:50;26.34;59.36
73780;SHT30;62093;37.614;15.072;2022-08-19T07:24:19;26.34;59.39
73780;SHT30;62093;37.614;15.072;2022-08-19T07:26:46;26.31;59.33
73780;SHT30;62093;37.614;15.072;2022-08-19T07:29:12;26.35;59.29
73780;SHT30;62093;37.614;15.072;2022-08-19T07:31:38;26.35;59.30
73780;SHT30;62093;37.614;15.072;2022-08-19T07:34:07;26.32;59.33
73780;SHT30;62093;37.614;15.072;2022-08-19T07:36:35;26.29;59.38
73780;SHT30;62093;37.614;15.072;2022-08-19T07:39:06;26.29;59.39
73780;SHT30;62093;37.614;15.072;2022-08-19T07:41:34;26.32;59.42
73780;SHT30;62093;37.614;15.072;2022-08-19T07:44:00;26.32;59.39
73780;SHT30;62093;37.614;15.072;2022-08-19T07:46:37;26.32;59.33
73780;SHT30;62093;37.614;15.072;2022-08-19T07:49:05;26.32;59.35
73780;SHT30;62093;37.614;15.072;2022-08-19T07:51:32;26.32;59.37
73780;SHT30;62093;37.614;15.072;2022-08-19T07:53:58;26.35;59.38
73780;SHT30;62093;37.614;15.072;2022-08-19T07:56:23;26.38;59.28
73780;SHT30;62093;37.614;15.072;2022-08-19T07:58:50;26.39;59.18
73780;SHT30;62093;37.614;15.072;2022-08-19T08:01:19;26.39;59.14
73780;SHT30;62093;37.614;15.072;2022-08-19T08:03:47;26.38;59.27
73780;SHT30;62093;37.614;15.072;2022-08-19T08:06:53;26.35;59.25
73780;SHT30;62093;37.614;15.072;2022-08-19T08:09:40;26.37;59.21
73780;SHT30;62093;37.614;15.072;2022-08-19T08:12:13;26.42;59.12
73780;SHT30;62093;37.614;15.072;2022-08-19T08:14:46;26.37;59.29
73780;SHT30;62093;37.614;15.072;2022-08-19T08:17:14;26.37;59.27
73780;SHT30;62093;37.614;15.072;2022-08-19T08:19:41;26.37;59.19
73780;SHT30;62093;37.614;15.072;2022-08-19T08:22:08;26.42;59.18
73780;SHT30;62093;37.614;15.072;2022-08-19T08:24:55;26.47;59.11
73780;SHT30;62093;37.614;15.072;2022-08-19T08:27:24;26.45;59.07
73780;SHT30;62093;37.614;15.072;2022-08-19T08:29:50;26.41;59.18
73780;SHT30;62093;37.614;15.072;2022-08-19T08:32:16;26.44;59.08
73780;SHT30;62093;37.614;15.072;2022-08-19T08:34:42;26.48;59.09
73780;SHT30;62093;37.614;15.072;2022-08-19T08:37:08;26.51;58.96
73780;SHT30;62093;37.614;15.072;2022-08-19T08:39:34;26.48;58.99
73780;SHT30;62093;37.614;15.072;2022-08-19T08:42:28;26.44;59.06
73780;SHT30;62093;37.614;15.072;2022-08-19T08:45:04;26.49;58.99
73780;SHT30;62093;37.614;15.072;2022-08-19T08:47:35;26.51;58.88
73780;SHT30;62093;37.614;15.072;2022-08-19T08:50:09;26.48;58.97
73780;SHT30;62093;37.614;15.072;2022-08-19T08:52:43;26.53;58.84
73780;SHT30;62093;37.614;15.072;2022-08-19T08:55:17;26.52;58.87
73780;SHT30;62093;37.614;15.072;2022-08-19T09:02:46;26.56;58.76
73780;SHT30;62093;37.614;15.072;2022-08-19T09:05:13;26.58;58.74
73780;SHT30;62093;37.614;15.072;2022-08-19T09:07:42;26.60;58.69
73780;SHT30;62093;37.614;15.072;2022-08-19T09:10:31;26.58;58.66
73780;SHT30;62093;37.614;15.072;2022-08-19T09:15:46;26.58;58.58
73780;SHT30;62093;37.614;15.072;2022-08-19T09:18:14;26.62;58.67
73780;SHT30;62093;37.614;15.072;2022-08-19T09:20:42;26.60;58.68
73780;SHT30;62093;37.614;15.072;2022-08-19T09:23:08;26.60;58.58
73780;SHT30;62093;37.614;15.072;2022-08-19T09:25:36;26.62;58.55
73780;SHT30;62093;37.614;15.072;2022-08-19T09:28:02;26.63;58.52
73780;SHT30;62093;37.614;15.072;2022-08-19T09:30:32;26.63;58.50
73780;SHT30;62093;37.614;15.072;2022-08-19T09:32:58;26.65;58.47
73780;SHT30;62093;37.614;15.072;2022-08-19T09:35:26;26.67;58.47
73780;SHT30;62093;37.614;15.072;2022-08-19T09:37:55;26.67;58.50
73780;SHT30;62093;37.614;15.072;2022-08-19T09:40:22;26.69;58.48
73780;SHT30;62093;37.614;15.072;2022-08-19T09:42:48;26.68;58.41
73780;SHT30;62093;37.614;15.072;2022-08-19T09:45:15;26.65;58.51
73780;SHT30;62093;37.614;15.072;2022-08-19T09:47:42;26.68;58.41
73780;SHT30;62093;37.614;15.072;2022-08-19T09:50:10;26.65;58.44
73780;SHT30;62093;37.614;15.072;2022-08-19T09:52:37;26.68;58.43
73780;SHT30;62093;37.614;15.072;2022-08-19T09:55:05;26.71;58.35
73780;SHT30;62093;37.614;15.072;2022-08-19T09:57:31;26.68;58.45
73780;SHT30;62093;37.614;15.072;2022-08-19T09:59:57;26.72;58.33
73780;SHT30;62093;37.614;15.072;2022-08-19T10:02:24;26.71;58.28
73780;SHT30;62093;37.614;15.072;2022-08-19T10:04:51;26.73;58.30
73780;SHT30;62093;37.614;15.072;2022-08-19T10:07:35;26.69;58.34
73780;SHT30;62093;37.614;15.072;2022-08-19T10:10:03;26.71;58.41
73780;SHT30;62093;37.614;15.072;2022-08-19T10:12:29;26.67;58.46
73780;SHT30;62093;37.614;15.072;2022-08-19T10:14:55;26.69;58.39
73780;SHT30;62093;37.614;15.072;2022-08-19T10:17:21;26.69;58.36
73780;SHT30;62093;37.614;15.072;2022-08-19T10:19:47;26.71;58.39
73780;SHT30;62093;37.614;15.072;2022-08-19T10:22:13;26.71;58.38
73780;SHT30;62093;37.614;15.072;2022-08-19T10:24:39;26.73;58.41
73780;SHT30;62093;37.614;15.072;2022-08-19T10:27:05;26.71;58.38
73780;SHT30;62093;37.614;15.072;2022-08-19T10:29:32;26.71;58.40
73780;SHT30;62093;37.614;15.072;2022-08-19T10:32:01;26.69;58.37
73780;SHT30;62093;37.614;15.072;2022-08-19T10:34:28;26.69;58.46
73780;SHT30;62093;37.614;15.072;2022-08-19T10:36:55;26.69;58.48
73780;SHT30;62093;37.614;15.072;2022-08-19T10:39:21;26.71;58.40
73780;SHT30;62093;37.614;15.072;2022-08-19T10:41:47;26.72;58.37
73780;SHT30;62093;37.614;15.072;2022-08-19T10:44:13;26.71;58.38
73780;SHT30;62093;37.614;15.072;2022-08-19T10:46:42;26.72;58.35
73780;SHT30;62093;37.614;15.072;2022-08-19T10:49:10;26.72;58.35
73780;SHT30;62093;37.614;15.072;2022-08-19T10:51:37;26.72;58.35
73780;SHT30;62093;37.614;15.072;2022-08-19T10:54:22;26.72;58.35
73780;SHT30;62093;37.614;15.072;2022-08-19T10:56:48;26.72;58.43
73780;SHT30;62093;37.614;15.072;2022-08-19T10:59:26;26.75;58.36
73780;SHT30;62093;37.614;15.072;2022-08-19T11:02:00;26.75;58.36
73780;SHT30;62093;37.614;15.072;2022-08-19T11:04:26;26.76;58.34
73780;SHT30;62093;37.614;15.072;2022-08-19T11:06:52;26.78;58.22
73780;SHT30;62093;37.614;15.072;2022-08-19T11:09:21;26.75;58.32
73780;SHT30;62093;37.614;15.072;2022-08-19T11:11:47;26.78;58.27
73780;SHT30;62093;37.614;15.072;2022-08-19T11:14:16;26.79;58.31
73780;SHT30;62093;37.614;15.072;2022-08-19T11:16:44;26.78;58.25
73780;SHT30;62093;37.614;15.072;2022-08-19T11:19:11;26.80;58.33
73780;SHT30;62093;37.614;15.072;2022-08-19T11:21:43;26.80;58.22
73780;SHT30;62093;37.614;15.072;2022-08-19T11:24:19;26.79;58.27
73780;SHT30;62093;37.614;15.072;2022-08-19T11:26:46;26.83;58.21
73780;SHT30;62093;37.614;15.072;2022-08-19T11:29:15;26.83;58.14
73780;SHT30;62093;37.614;15.072;2022-08-19T11:31:44;26.83;58.17
73780;SHT30;62093;37.614;15.072;2022-08-19T11:34:13;26.85;58.18
73780;SHT30;62093;37.614;15.072;2022-08-19T11:36:41;26.83;58.17
73780;SHT30;62093;37.614;15.072;2022-08-19T11:39:09;26.83;58.19
73780;SHT30;62093;37.614;15.072;2022-08-19T11:41:36;26.85;58.21
73780;SHT30;62093;37.614;15.072;2022-08-19T11:44:02;26.85;58.18
73780;SHT30;62093;37.614;15.072;2022-08-19T11:46:29;26.83;58.16
73780;SHT30;62093;37.614;15.072;2022-08-19T11:48:59;26.86;58.10
73780;SHT30;62093;37.614;15.072;2022-08-19T11:51:27;26.86;58.08
73780;SHT30;62093;37.614;15.072;2022-08-19T11:53:54;26.86;58.12
73780;SHT30;62093;37.614;15.072;2022-08-19T11:56:21;26.86;58.10
73780;SHT30;62093;37.614;15.072;2022-08-19T11:58:48;26.88;58.12
73780;SHT30;62093;37.614;15.072;2022-08-19T12:01:17;26.85;58.17
73780;SHT30;62093;37.614;15.072;2022-08-19T12:03:46;26.86;58.06
73780;SHT30;62093;37.614;15.072;2022-08-19T12:06:14;26.89;58.09
73780;SHT30;62093;37.614;15.072;2022-08-19T12:08:41;26.88;58.12
73780;SHT30;62093;37.614;15.072;2022-08-19T12:11:09;26.88;58.10
73780;SHT30;62093;37.614;15.072;2022-08-19T12:13:36;26.89;58.04
73780;SHT30;62093;37.614;15.072;2022-08-19T12:16:11;26.93;58.00
73780;SHT30;62093;37.614;15.072;2022-08-19T12:18:42;26.90;58.01
73780;SHT30;62093;37.614;15.072;2022-08-19T12:21:21;26.90;58.02
73780;SHT30;62093;37.614;15.072;2022-08-19T12:23:48;26.89;58.05
73780;SHT30;62093;37.614;15.072;2022-08-19T12:26:15;26.92;58.00
73780;SHT30;62093;37.614;15.072;2022-08-19T12:28:41;26.88;58.00
73780;SHT30;62093;37.614;15.072;2022-08-19T12:31:08;26.95;58.02
73780;SHT30;62093;37.614;15.072;2022-08-19T12:33:34;26.95;58.01
73780;SHT30;62093;37.614;15.072;2022-08-19T12:36:03;26.93;57.96
73780;SHT30;62093;37.614;15.072;2022-08-19T12:38:30;26.93;57.94
73780;SHT30;62093;37.614;15.072;2022-08-19T12:40:55;26.95;57.98
73780;SHT30;62093;37.614;15.072;2022-08-19T12:43:21;26.99;57.93
73780;SHT30;62093;37.614;15.072;2022-08-19T12:45:47;26.99;57.85
73780;SHT30;62093;37.614;15.072;2022-08-19T12:48:13;27.02;57.82
73780;SHT30;62093;37.614;15.072;2022-08-19T12:50:41;26.98;57.83
73780;SHT30;62093;37.614;15.072;2022-08-19T12:53:07;27.02;57.83
73780;SHT30;62093;37.614;15.072;2022-08-19T12:55:33;26.96;57.81
73780;SHT30;62093;37.614;15.072;2022-08-19T12:57:59;26.99;57.90
73780;SHT30;62093;37.614;15.072;2022-08-19T13:00:27;27.02;57.85
73780;SHT30;62093;37.614;15.072;2022-08-19T13:02:53;27.03;57.83
73780;SHT30;62093;37.614;15.072;2022-08-19T13:05:23;27.00;57.79
73780;SHT30;62093;37.614;15.072;2022-08-19T13:07:51;26.99;57.86
73780;SHT30;62093;37.614;15.072;2022-08-19T13:10:19;26.98;57.88
73780;SHT30;62093;37.614;15.072;2022-08-19T13:12:47;27.02;57.85
73780;SHT30;62093;37.614;15.072;2022-08-19T13:15:14;27.00;57.79
73780;SHT30;62093;37.614;15.072;2022-08-19T13:17:41;26.98;57.86
73780;SHT30;62093;37.614;15.072;2022-08-19T13:20:08;27.00;57.87
73780;SHT30;62093;37.614;15.072;2022-08-19T13:22:35;27.06;57.81
73780;SHT30;62093;37.614;15.072;2022-08-19T13:25:03;27.04;57.80
73780;SHT30;62093;37.614;15.072;2022-08-19T13:27:29;27.02;57.86
73780;SHT30;62093;37.614;15.072;2022-08-19T13:29:55;27.06;57.73
73780;SHT30;62093;37.614;15.072;2022-08-19T13:32:39;27.06;57.71
73780;SHT30;62093;37.614;15.072;2022-08-19T13:35:24;27.07;57.71
73780;SHT30;62093;37.614;15.072;2022-08-19T13:37:49;27.06;57.68
73780;SHT30;62093;37.614;15.072;2022-08-19T13:40:19;27.02;57.74
73780;SHT30;62093;37.614;15.072;2022-08-19T13:42:49;26.98;57.93
73780;SHT30;62093;37.614;15.072;2022-08-19T13:45:17;26.98;57.88
73780;SHT30;62093;37.614;15.072;2022-08-19T13:47:46;27.00;57.95
73780;SHT30;62093;37.614;15.072;2022-08-19T13:50:14;26.99;57.91
73780;SHT30;62093;37.614;15.072;2022-08-19T13:52:40;27.03;57.82
73780;SHT30;62093;37.614;15.072;2022-08-19T13:55:08;27.03;57.91
73780;SHT30;62093;37.614;15.072;2022-08-19T13:57:34;27.03;57.80
73780;SHT30;62093;37.614;15.072;2022-08-19T14:00:01;27.06;57.77
73780;SHT30;62093;37.614;15.072;2022-08-19T14:02:30;27.07;57.73
73780;SHT30;62093;37.614;15.072;2022-08-19T14:04:56;27.06;57.80
73780;SHT30;62093;37.614;15.072;2022-08-19T14:07:21;27.10;57.73
73780;SHT30;62093;37.614;15.072;2022-08-19T14:09:50;27.09;57.73
73780;SHT30;62093;37.614;15.072;2022-08-19T14:12:19;27.07;57.72
73780;SHT30;62093;37.614;15.072;2022-08-19T14:14:46;27.09;57.74
73780;SHT30;62093;37.614;15.072;2022-08-19T14:17:12;27.09;57.76
73780;SHT30;62093;37.614;15.072;2022-08-19T14:19:38;27.09;57.72
73780;SHT30;62093;37.614;15.072;2022-08-19T14:22:04;27.11;57.73
73780;SHT30;62093;37.614;15.072;2022-08-19T14:24:31;27.11;57.75
73780;SHT30;62093;37.614;15.072;2022-08-19T14:26:59;27.11;57.62
73780;SHT30;62093;37.614;15.072;2022-08-19T14:29:26;27.11;57.67
73780;SHT30;62093;37.614;15.072;2022-08-19T14:31:55;27.13;57.61
73780;SHT30;62093;37.614;15.072;2022-08-19T14:34:25;27.10;57.68
73780;SHT30;62093;37.614;15.072;2022-08-19T14:36:52;27.11;57.64
73780;SHT30;62093;37.614;15.072;2022-08-19T14:39:17;27.11;57.62
73780;SHT30;62093;37.614;15.072;2022-08-19T14:41:43;27.11;57.68
73780;SHT30;62093;37.614;15.072;2022-08-19T14:44:11;27.13;57.62
73780;SHT30;62093;37.614;15.072;2022-08-19T14:46:38;27.13;57.59
73780;SHT30;62093;37.614;15.072;2022-08-19T14:49:06;27.17;57.58
73780;SHT30;62093;37.614;15.072;2022-08-19T14:51:33;27.17;57.56
73780;SHT30;62093;37.614;15.072;2022-08-19T14:53:59;27.16;57.58
73780;SHT30;62093;37.614;15.072;2022-08-19T14:56:28;27.16;57.58
73780;SHT30;62093;37.614;15.072;2022-08-19T14:58:54;27.16;57.56
73780;SHT30;62093;37.614;15.072;2022-08-19T15:01:23;27.11;57.66
73780;SHT30;62093;37.614;15.072;2022-08-19T15:03:51;27.14;57.66
73780;SHT30;62093;37.614;15.072;2022-08-19T15:06:22;27.13;57.65
73780;SHT30;62093;37.614;15.072;2022-08-19T15:08:48;27.13;57.62
73780;SHT30;62093;37.614;15.072;2022-08-19T15:11:18;27.11;57.65
73780;SHT30;62093;37.614;15.072;2022-08-19T15:13:47;27.11;57.70
73780;SHT30;62093;37.614;15.072;2022-08-19T15:16:14;27.16;57.73
73780;SHT30;62093;37.614;15.072;2022-08-19T15:18:41;27.17;57.63
73780;SHT30;62093;37.614;15.072;2022-08-19T15:21:11;27.11;57.64
73780;SHT30;62093;37.614;15.072;2022-08-19T15:23:38;27.10;57.68
73780;SHT30;62093;37.614;15.072;2022-08-19T15:26:05;27.10;57.76
73780;SHT30;62093;37.614;15.072;2022-08-19T15:28:33;27.11;57.68
73780;SHT30;62093;37.614;15.072;2022-08-19T15:30:58;27.13;57.76